Time;durP1;ratioP1;P1;durP2;ratioP2;P2;SDS_P1;SDS_P2;PMS_P1;PMS_P2;Temp;Humidity;BMP_temperature;BMP_pressure;BME280_temperature;BME280_humidity;BME280_pressure;Samples;Min_cycle;Max_cycle;Signal;HPM_P1;HPM_P2
2023/01/22 00:00:15;;;;;;;34.33;14.52;;;;;;;;;;4987103;28;20041;-68
2023/01/22 00:02:41;;;;;;;34.20;15.43;;;;;;;;;;4990062;28;20438;-69
2023/01/22 00:05:07;;;;;;;34.40;15.07;;;;;;;;;;4988197;28;20014;-69
2023/01/22 00:07:32;;;;;;;36.97;15.55;;;;;;;;;;4988308;28;20045;-69
2023/01/22 00:10:01;;;;;;;36.88;15.73;;;;;;;;;;5005240;28;20034;-69
2023/01/22 00:12:26;;;;;;;36.78;16.45;;;;;;;;;;4990635;28;20041;-69
2023/01/22 00:14:52;;;;;;;36.15;15.55;;;;;;;;;;4986756;28;20030;-68
2023/01/22 00:17:18;;;;;;;31.13;14.00;;;;;;;;;;4987301;28;20102;-69
2023/01/22 00:19:43;;;;;;;31.50;14.75;;;;;;;;;;4993701;28;20046;-69
2023/01/22 00:22:10;;;;;;;32.70;14.13;;;;;;;;;;4990910;28;20048;-70
2023/01/22 00:24:35;;;;;;;36.50;15.77;;;;;;;;;;4993178;28;20502;-69
2023/01/22 00:27:01;;;;;;;33.30;15.25;;;;;;;;;;4991833;28;20109;-70
2023/01/22 00:29:26;;;;;;;28.85;14.50;;;;;;;;;;4992507;28;20076;-68
2023/01/22 00:31:52;;;;;;;30.45;14.48;;;;;;;;;;4994290;28;20041;-67
2023/01/22 00:34:17;;;;;;;34.67;15.18;;;;;;;;;;4992489;28;20068;-68
2023/01/22 00:36:42;;;;;;;32.28;15.15;;;;;;;;;;4990541;28;20034;-69
2023/01/22 00:39:09;;;;;;;29.67;14.60;;;;;;;;;;4992492;28;20026;-68
2023/01/22 00:41:34;;;;;;;30.17;13.73;;;;;;;;;;4994282;28;20189;-68
2023/01/22 00:44:00;;;;;;;31.55;14.82;;;;;;;;;;4994055;28;20524;-69
2023/01/22 00:46:25;;;;;;;31.85;15.52;;;;;;;;;;4991296;28;20120;-69
2023/01/22 00:48:50;;;;;;;30.65;15.00;;;;;;;;;;4991825;28;20039;-69
2023/01/22 00:51:16;;;;;;;33.13;14.40;;;;;;;;;;4991100;28;20806;-68
2023/01/22 00:53:42;;;;;;;26.77;13.43;;;;;;;;;;4992884;28;20044;-69
2023/01/22 00:56:09;;;;;;;32.75;14.93;;;;;;;;;;4990650;28;20101;-69
2023/01/22 00:58:35;;;;;;;31.92;14.70;;;;;;;;;;4990963;28;20035;-68
2023/01/22 01:01:01;;;;;;;32.17;14.38;;;;;;;;;;4992642;28;20033;-69
2023/01/22 01:03:29;;;;;;;32.17;14.23;;;;;;;;;;5006487;28;20395;-69
2023/01/22 01:05:59;;;;;;;28.95;12.82;;;;;;;;;;5008457;28;20455;-68
2023/01/22 01:08:26;;;;;;;29.92;13.65;;;;;;;;;;4994376;28;20018;-68
2023/01/22 01:11:01;;;;;;;31.55;13.98;;;;;;;;;;4992710;28;20121;-68
2023/01/22 01:13:28;;;;;;;30.25;13.50;;;;;;;;;;4988959;28;20034;-68
2023/01/22 01:16:05;;;;;;;31.73;14.10;;;;;;;;;;4991632;28;20046;-68
2023/01/22 01:18:32;;;;;;;34.92;15.07;;;;;;;;;;4989180;28;20132;-68
2023/01/22 01:20:58;;;;;;;30.00;14.18;;;;;;;;;;4991341;28;20034;-68
2023/01/22 01:23:25;;;;;;;32.90;14.23;;;;;;;;;;4997436;28;20446;-68
2023/01/22 01:25:51;;;;;;;33.63;14.35;;;;;;;;;;4996112;28;20469;-68
2023/01/22 01:28:17;;;;;;;28.83;13.90;;;;;;;;;;4990362;28;20053;-68
2023/01/22 01:30:43;;;;;;;27.80;12.68;;;;;;;;;;4990864;28;20077;-68
2023/01/22 01:33:08;;;;;;;27.25;13.45;;;;;;;;;;4990529;28;20439;-68
2023/01/22 01:35:34;;;;;;;28.17;13.20;;;;;;;;;;4995858;28;20030;-68
2023/01/22 01:37:59;;;;;;;32.65;14.80;;;;;;;;;;4996690;28;20026;-69
2023/01/22 01:40:25;;;;;;;28.00;13.48;;;;;;;;;;4994507;28;20034;-68
2023/01/22 01:42:50;;;;;;;26.23;13.18;;;;;;;;;;4989650;28;20041;-68
2023/01/22 01:45:22;;;;;;;25.83;12.57;;;;;;;;;;4992628;28;20061;-68
2023/01/22 01:48:10;;;;;;;26.63;13.23;;;;;;;;;;4989575;28;20026;-68
2023/01/22 01:50:38;;;;;;;31.00;12.88;;;;;;;;;;4989603;28;20033;-68
2023/01/22 01:53:05;;;;;;;29.23;13.18;;;;;;;;;;4989206;28;20101;-69
2023/01/22 01:55:34;;;;;;;25.92;13.02;;;;;;;;;;4990161;28;20034;-68
2023/01/22 01:58:09;;;;;;;27.42;12.20;;;;;;;;;;4988584;28;20495;-68
2023/01/22 02:00:36;;;;;;;27.15;13.10;;;;;;;;;;4989842;28;20029;-68
2023/01/22 02:03:02;;;;;;;31.52;14.27;;;;;;;;;;4993352;28;20026;-68
2023/01/22 02:05:33;;;;;;;30.63;13.10;;;;;;;;;;4993583;28;20109;-69
2023/01/22 02:07:58;;;;;;;30.05;13.57;;;;;;;;;;4991791;28;20030;-69
2023/01/22 02:10:24;;;;;;;31.98;13.88;;;;;;;;;;4995910;28;20032;-69
2023/01/22 02:12:50;;;;;;;28.90;13.85;;;;;;;;;;4990063;28;20045;-69
2023/01/22 02:15:16;;;;;;;29.95;13.68;;;;;;;;;;4993024;28;20054;-69
2023/01/22 02:17:41;;;;;;;29.95;13.93;;;;;;;;;;4992666;28;20123;-69
2023/01/22 02:20:08;;;;;;;31.42;13.82;;;;;;;;;;4991969;28;20022;-69
2023/01/22 02:22:37;;;;;;;28.95;14.02;;;;;;;;;;4989933;28;20029;-69
2023/01/22 02:25:03;;;;;;;31.83;14.75;;;;;;;;;;4990102;28;20109;-69
2023/01/22 02:27:28;;;;;;;35.15;15.43;;;;;;;;;;4989651;28;20109;-69
2023/01/22 02:29:53;;;;;;;35.42;14.43;;;;;;;;;;4994561;28;20085;-69
2023/01/22 02:32:19;;;;;;;29.55;14.23;;;;;;;;;;4994070;28;20396;-69
2023/01/22 02:34:44;;;;;;;29.60;14.38;;;;;;;;;;4989269;28;20117;-69
2023/01/22 02:37:10;;;;;;;29.90;13.73;;;;;;;;;;4990244;28;20034;-69
2023/01/22 02:39:35;;;;;;;26.10;12.70;;;;;;;;;;4990240;28;20031;-70
2023/01/22 02:42:03;;;;;;;25.50;13.23;;;;;;;;;;4991656;28;20034;-68
2023/01/22 02:44:28;;;;;;;26.77;12.65;;;;;;;;;;4993639;28;20521;-69
2023/01/22 02:46:54;;;;;;;27.55;13.13;;;;;;;;;;4988657;28;20042;-69
2023/01/22 02:49:19;;;;;;;30.52;13.45;;;;;;;;;;4990292;28;21003;-69
2023/01/22 02:51:44;;;;;;;26.63;13.27;;;;;;;;;;4988055;28;20057;-69
2023/01/22 02:54:10;;;;;;;28.35;13.57;;;;;;;;;;4989787;28;20026;-69
2023/01/22 02:56:35;;;;;;;29.08;13.93;;;;;;;;;;4988832;28;20041;-69
2023/01/22 02:59:02;;;;;;;28.17;13.00;;;;;;;;;;5004259;28;20109;-68
2023/01/22 03:01:28;;;;;;;31.10;14.75;;;;;;;;;;4993363;28;20026;-68
2023/01/22 03:04:00;;;;;;;31.60;13.98;;;;;;;;;;4991467;28;20399;-69
2023/01/22 03:06:28;;;;;;;31.38;14.50;;;;;;;;;;4987110;28;20034;-67
2023/01/22 03:08:58;;;;;;;28.83;13.52;;;;;;;;;;4987816;28;20034;-68
2023/01/22 03:11:26;;;;;;;30.88;13.80;;;;;;;;;;4991942;28;20034;-68
2023/01/22 03:22:07;;;;;;;31.15;14.20;;;;;;;;;;4993635;28;20121;-69
2023/01/22 03:24:33;;;;;;;30.27;14.38;;;;;;;;;;4992694;28;20113;-69
2023/01/22 03:26:58;;;;;;;30.10;14.52;;;;;;;;;;4991949;28;20117;-69
2023/01/22 03:29:24;;;;;;;34.15;15.82;;;;;;;;;;4992943;28;20114;-69
2023/01/22 03:31:49;;;;;;;32.72;15.77;;;;;;;;;;4990012;28;20034;-69
2023/01/22 03:34:19;;;;;;;32.92;14.13;;;;;;;;;;4989752;28;20510;-69
2023/01/22 03:36:45;;;;;;;30.42;13.70;;;;;;;;;;4991503;28;20475;-69
2023/01/22 03:39:11;;;;;;;29.73;13.63;;;;;;;;;;4994240;28;20072;-69
2023/01/22 03:41:37;;;;;;;32.72;13.73;;;;;;;;;;4996252;28;20482;-69
2023/01/22 03:44:03;;;;;;;31.33;14.38;;;;;;;;;;4995234;28;20027;-69
2023/01/22 03:46:29;;;;;;;31.40;14.38;;;;;;;;;;4986320;28;20046;-70
2023/01/22 03:48:55;;;;;;;34.50;14.27;;;;;;;;;;4999140;28;20403;-69
2023/01/22 03:51:21;;;;;;;33.75;14.15;;;;;;;;;;4989072;28;20048;-69
2023/01/22 03:53:47;;;;;;;32.45;15.10;;;;;;;;;;4988440;28;20034;-69
2023/01/22 03:56:15;;;;;;;35.25;15.90;;;;;;;;;;4988799;28;20038;-69
2023/01/22 03:58:41;;;;;;;34.03;15.15;;;;;;;;;;4991969;28;20627;-68
2023/01/22 04:01:13;;;;;;;30.10;14.57;;;;;;;;;;4991040;28;20113;-69
2023/01/22 04:03:39;;;;;;;29.20;13.88;;;;;;;;;;4991073;28;20472;-69
2023/01/22 04:06:06;;;;;;;36.35;15.60;;;;;;;;;;4989510;28;20038;-69
2023/01/22 04:08:33;;;;;;;37.17;15.65;;;;;;;;;;4988117;28;20116;-70
2023/01/22 04:10:59;;;;;;;34.47;15.10;;;;;;;;;;4988432;28;20105;-69
2023/01/22 04:13:27;;;;;;;35.58;15.40;;;;;;;;;;5003035;28;20113;-68
2023/01/22 04:15:52;;;;;;;36.78;15.18;;;;;;;;;;4989093;28;20489;-67
2023/01/22 04:18:18;;;;;;;35.58;15.23;;;;;;;;;;4994280;28;20032;-67
2023/01/22 04:20:44;;;;;;;33.28;15.40;;;;;;;;;;4991513;28;20034;-69
2023/01/22 04:23:10;;;;;;;35.35;15.10;;;;;;;;;;4993055;28;20033;-69
2023/01/22 04:25:35;;;;;;;34.50;14.63;;;;;;;;;;4987575;28;20411;-69
2023/01/22 04:28:01;;;;;;;33.10;13.75;;;;;;;;;;4994820;28;20507;-69
2023/01/22 04:30:26;;;;;;;35.67;15.48;;;;;;;;;;4993451;28;20096;-69
2023/01/22 04:32:52;;;;;;;39.38;16.35;;;;;;;;;;4994410;28;20065;-69
2023/01/22 04:35:17;;;;;;;36.95;16.00;;;;;;;;;;4987229;28;20069;-69
2023/01/22 04:37:42;;;;;;;39.53;15.18;;;;;;;;;;4989566;28;20053;-70
2023/01/22 04:40:09;;;;;;;39.75;15.73;;;;;;;;;;4990246;28;20030;-69
2023/01/22 04:42:34;;;;;;;39.42;16.10;;;;;;;;;;4986692;28;20022;-69
2023/01/22 04:45:00;;;;;;;39.25;15.52;;;;;;;;;;4987286;28;20049;-69
2023/01/22 04:47:25;;;;;;;38.58;14.98;;;;;;;;;;4985589;28;20074;-69
2023/01/22 04:49:51;;;;;;;37.60;15.00;;;;;;;;;;4986479;28;20117;-69
2023/01/22 04:52:16;;;;;;;37.28;14.88;;;;;;;;;;4989164;28;20030;-69
2023/01/22 04:54:42;;;;;;;38.50;15.93;;;;;;;;;;4989097;28;20030;-69
2023/01/22 04:57:08;;;;;;;35.15;14.25;;;;;;;;;;4985204;28;20061;-69
2023/01/22 04:59:33;;;;;;;42.63;16.92;;;;;;;;;;4992516;28;20030;-69
2023/01/22 05:01:59;;;;;;;39.80;15.75;;;;;;;;;;4986599;28;20030;-69
2023/01/22 05:04:24;;;;;;;35.85;14.88;;;;;;;;;;4991126;28;20170;-69
2023/01/22 05:06:50;;;;;;;37.15;15.02;;;;;;;;;;4990544;28;20034;-69
2023/01/22 05:09:15;;;;;;;40.95;16.27;;;;;;;;;;4994323;28;20033;-69
2023/01/22 05:11:41;;;;;;;35.00;14.63;;;;;;;;;;4996002;28;20076;-69
2023/01/22 05:14:06;;;;;;;30.85;13.32;;;;;;;;;;4994214;28;20030;-69
2023/01/22 05:16:32;;;;;;;35.58;14.77;;;;;;;;;;4989567;28;20034;-69
2023/01/22 05:18:58;;;;;;;32.75;13.38;;;;;;;;;;4991208;28;20570;-69
2023/01/22 05:21:23;;;;;;;34.50;13.65;;;;;;;;;;4992418;28;20034;-68
2023/01/22 05:23:49;;;;;;;34.05;15.10;;;;;;;;;;4996209;28;20472;-68
2023/01/22 05:26:14;;;;;;;32.67;14.20;;;;;;;;;;4996389;28;20105;-69
2023/01/22 05:28:39;;;;;;;34.80;13.63;;;;;;;;;;4991681;28;20050;-68
2023/01/22 05:31:05;;;;;;;36.78;14.60;;;;;;;;;;4992376;28;20089;-68
2023/01/22 05:33:31;;;;;;;33.97;13.90;;;;;;;;;;4995259;28;20038;-68
2023/01/22 05:36:00;;;;;;;37.45;15.10;;;;;;;;;;4995255;28;20054;-67
2023/01/22 05:38:27;;;;;;;36.42;14.77;;;;;;;;;;4995297;28;20027;-70
2023/01/22 05:40:53;;;;;;;34.60;14.63;;;;;;;;;;4993382;28;20376;-68
2023/01/22 05:43:18;;;;;;;34.10;13.88;;;;;;;;;;4989872;28;20102;-68
2023/01/22 05:45:44;;;;;;;31.40;13.32;;;;;;;;;;4990766;28;20088;-69
2023/01/22 05:48:09;;;;;;;31.20;14.98;;;;;;;;;;4989970;28;20512;-68
2023/01/22 05:50:35;;;;;;;39.03;16.95;;;;;;;;;;4990453;28;20024;-69
2023/01/22 05:53:01;;;;;;;44.17;18.70;;;;;;;;;;4993028;28;20026;-69
2023/01/22 05:55:27;;;;;;;49.05;19.60;;;;;;;;;;4992208;28;20191;-69
2023/01/22 05:57:52;;;;;;;51.33;21.38;;;;;;;;;;4990035;28;20022;-67
2023/01/22 06:00:18;;;;;;;43.22;18.02;;;;;;;;;;4990116;28;20022;-69
2023/01/22 06:02:43;;;;;;;36.28;16.25;;;;;;;;;;4992882;28;20056;-69
2023/01/22 06:05:09;;;;;;;35.00;15.60;;;;;;;;;;4993149;28;20023;-69
2023/01/22 06:07:34;;;;;;;34.60;15.15;;;;;;;;;;4988407;28;20506;-70
2023/01/22 06:09:59;;;;;;;38.20;15.55;;;;;;;;;;4993067;28;20085;-70
2023/01/22 06:12:25;;;;;;;41.97;16.25;;;;;;;;;;4991373;28;20026;-70
2023/01/22 06:14:52;;;;;;;38.55;14.88;;;;;;;;;;4989818;28;20113;-69
2023/01/22 06:17:17;;;;;;;40.17;15.23;;;;;;;;;;4987017;28;20404;-70
2023/01/22 06:19:42;;;;;;;38.13;15.10;;;;;;;;;;4992227;28;20026;-69
2023/01/22 06:22:08;;;;;;;41.75;16.60;;;;;;;;;;4998996;28;20109;-70
2023/01/22 06:24:33;;;;;;;38.20;16.65;;;;;;;;;;4991199;28;20026;-70
2023/01/22 06:26:58;;;;;;;41.63;15.82;;;;;;;;;;4990790;28;20844;-69
2023/01/22 06:29:24;;;;;;;39.75;15.38;;;;;;;;;;4990233;28;20102;-69
2023/01/22 06:31:49;;;;;;;38.53;14.52;;;;;;;;;;4990009;28;20048;-68
2023/01/22 06:34:15;;;;;;;33.95;14.50;;;;;;;;;;4990232;28;20435;-69
2023/01/22 06:36:40;;;;;;;34.47;13.60;;;;;;;;;;4990019;28;20030;-69
2023/01/22 06:39:06;;;;;;;37.55;14.07;;;;;;;;;;5003085;28;20037;-69
2023/01/22 06:41:31;;;;;;;34.80;14.55;;;;;;;;;;4991039;28;20050;-69
2023/01/22 06:43:56;;;;;;;36.30;15.02;;;;;;;;;;4990358;28;20035;-69
2023/01/22 06:46:22;;;;;;;42.60;17.88;;;;;;;;;;4990011;28;20041;-69
2023/01/22 06:48:47;;;;;;;43.42;17.38;;;;;;;;;;4989459;28;20028;-69
2023/01/22 06:51:13;;;;;;;38.05;15.65;;;;;;;;;;4988934;28;20089;-69
2023/01/22 06:53:38;;;;;;;35.70;15.05;;;;;;;;;;4992312;28;20038;-69
2023/01/22 06:56:04;;;;;;;38.25;15.82;;;;;;;;;;4990548;28;20061;-69
2023/01/22 06:58:30;;;;;;;43.83;15.98;;;;;;;;;;4990735;28;20026;-69
2023/01/22 07:01:03;;;;;;;43.55;17.42;;;;;;;;;;4990808;28;20515;-69
2023/01/22 07:03:28;;;;;;;47.50;18.20;;;;;;;;;;4987115;28;20510;-70
2023/01/22 07:05:56;;;;;;;46.88;18.40;;;;;;;;;;4990074;28;20030;-69
2023/01/22 07:08:22;;;;;;;42.03;17.15;;;;;;;;;;4990767;28;20038;-69
2023/01/22 07:10:47;;;;;;;44.95;17.30;;;;;;;;;;4991207;28;20028;-69
2023/01/22 07:13:14;;;;;;;42.47;15.75;;;;;;;;;;4997039;28;20673;-69
2023/01/22 07:15:40;;;;;;;47.15;15.93;;;;;;;;;;4991876;28;20026;-69
2023/01/22 07:18:05;;;;;;;45.42;18.20;;;;;;;;;;4990543;28;20388;-63
2023/01/22 07:20:31;;;;;;;37.42;10.85;;;;;;;;;;4989188;28;20089;-70
2023/01/22 07:22:58;;;;;;;52.85;19.52;;;;;;;;;;4994838;28;20034;-69
2023/01/22 07:25:24;;;;;;;54.92;20.40;;;;;;;;;;4989007;28;20593;-65
2023/01/22 07:27:50;;;;;;;67.60;26.98;;;;;;;;;;4988166;28;20046;-65
2023/01/22 07:30:15;;;;;;;60.30;24.05;;;;;;;;;;4988521;28;20072;-69
2023/01/22 07:32:41;;;;;;;46.10;17.95;;;;;;;;;;4990256;28;21623;-69
2023/01/22 07:35:07;;;;;;;43.53;17.83;;;;;;;;;;4987354;28;20040;-69
2023/01/22 07:37:32;;;;;;;41.42;17.63;;;;;;;;;;4988482;28;20054;-69
2023/01/22 07:39:57;;;;;;;47.72;17.05;;;;;;;;;;4989904;28;20472;-68
2023/01/22 07:42:23;;;;;;;47.25;18.25;;;;;;;;;;4988125;28;20158;-68
2023/01/22 07:44:48;;;;;;;53.15;20.77;;;;;;;;;;4988396;28;20026;-67
2023/01/22 07:47:13;;;;;;;81.65;30.55;;;;;;;;;;4993946;28;20026;-68
2023/01/22 07:49:39;;;;;;;81.28;30.85;;;;;;;;;;4989910;28;20358;-67
2023/01/22 07:52:04;;;;;;;48.00;21.48;;;;;;;;;;4989471;28;20068;-63
2023/01/22 07:54:34;;;;;;;52.13;19.92;;;;;;;;;;4992004;28;20026;-68
2023/01/22 07:57:00;;;;;;;44.70;16.95;;;;;;;;;;4988135;28;20096;-68
2023/01/22 07:59:25;;;;;;;39.53;15.90;;;;;;;;;;4990455;28;20022;-69
2023/01/22 08:01:53;;;;;;;32.72;13.05;;;;;;;;;;4990322;28;20028;-69
2023/01/22 08:04:18;;;;;;;38.58;15.60;;;;;;;;;;4994032;28;20022;-68
2023/01/22 08:06:44;;;;;;;40.38;14.52;;;;;;;;;;4991123;28;20493;-69
2023/01/22 08:09:09;;;;;;;44.60;15.48;;;;;;;;;;4997306;28;20080;-68
2023/01/22 08:11:34;;;;;;;45.90;15.95;;;;;;;;;;4995770;28;20481;-68
2023/01/22 08:14:00;;;;;;;49.95;17.45;;;;;;;;;;4994119;28;20041;-68
2023/01/22 08:16:25;;;;;;;49.53;16.65;;;;;;;;;;4994799;28;20140;-68
2023/01/22 08:18:51;;;;;;;45.65;16.88;;;;;;;;;;4994440;28;20652;-68
2023/01/22 08:21:16;;;;;;;55.25;17.70;;;;;;;;;;4994508;28;20109;-68
2023/01/22 08:23:41;;;;;;;46.72;16.98;;;;;;;;;;4996406;28;20026;-68
2023/01/22 08:26:07;;;;;;;50.08;16.77;;;;;;;;;;4998679;28;20060;-68
2023/01/22 08:28:32;;;;;;;46.25;15.35;;;;;;;;;;4997681;28;20053;-69
2023/01/22 08:30:59;;;;;;;49.78;15.48;;;;;;;;;;4996215;28;20485;-67
2023/01/22 08:33:25;;;;;;;46.17;15.20;;;;;;;;;;4994217;28;20026;-67
2023/01/22 08:35:51;;;;;;;45.83;16.23;;;;;;;;;;4984555;28;20044;-67
2023/01/22 08:38:16;;;;;;;50.15;16.75;;;;;;;;;;4999541;28;20050;-69
2023/01/22 08:40:41;;;;;;;44.38;15.38;;;;;;;;;;4992915;28;20026;-67
2023/01/22 08:43:07;;;;;;;47.38;15.80;;;;;;;;;;4991922;28;20077;-66
2023/01/22 08:45:33;;;;;;;36.28;12.85;;;;;;;;;;4993798;28;20030;-66
2023/01/22 08:47:59;;;;;;;50.83;16.58;;;;;;;;;;4990612;28;20396;-67
2023/01/22 08:50:25;;;;;;;44.47;16.33;;;;;;;;;;4993781;28;20034;-66
2023/01/22 08:52:51;;;;;;;42.90;15.10;;;;;;;;;;4990275;28;20125;-66
2023/01/22 08:55:16;;;;;;;50.15;16.40;;;;;;;;;;4994837;28;20110;-67
2023/01/22 08:57:42;;;;;;;46.22;16.42;;;;;;;;;;4994658;28;20499;-66
2023/01/22 09:00:08;;;;;;;49.10;15.63;;;;;;;;;;4998905;28;20514;-66
2023/01/22 09:02:33;;;;;;;46.55;16.30;;;;;;;;;;4996896;28;20030;-67
2023/01/22 09:04:59;;;;;;;46.67;15.50;;;;;;;;;;4994030;28;20035;-68
2023/01/22 09:07:24;;;;;;;46.15;14.98;;;;;;;;;;4998051;28;20034;-68
2023/01/22 09:09:50;;;;;;;47.15;17.15;;;;;;;;;;4996358;28;20030;-67
2023/01/22 09:12:15;;;;;;;39.33;16.63;;;;;;;;;;4996053;28;20022;-66
2023/01/22 09:14:40;;;;;;;43.05;16.00;;;;;;;;;;4998951;28;20034;-66
2023/01/22 09:17:06;;;;;;;43.58;15.52;;;;;;;;;;4998475;28;20034;-67
2023/01/22 09:19:31;;;;;;;47.35;16.35;;;;;;;;;;5000243;28;20391;-67
2023/01/22 09:21:56;;;;;;;38.80;16.17;;;;;;;;;;4999260;28;20200;-67
2023/01/22 09:24:22;;;;;;;42.97;17.30;;;;;;;;;;4997681;28;20506;-67
2023/01/22 09:26:47;;;;;;;48.40;17.40;;;;;;;;;;4999167;28;20022;-66
2023/01/22 09:29:13;;;;;;;45.25;17.60;;;;;;;;;;4999313;28;20018;-65
2023/01/22 09:31:38;;;;;;;46.60;18.75;;;;;;;;;;4999807;28;20014;-65
2023/01/22 09:34:04;;;;;;;47.22;18.35;;;;;;;;;;5001705;28;20044;-68
2023/01/22 09:36:29;;;;;;;46.28;17.40;;;;;;;;;;4990563;28;20038;-68
2023/01/22 09:38:55;;;;;;;40.67;15.98;;;;;;;;;;4997190;28;20026;-68
2023/01/22 09:41:33;;;;;;;38.90;15.30;;;;;;;;;;4992012;28;20115;-67
2023/01/22 09:44:16;;;;;;;36.22;14.23;;;;;;;;;;4990994;28;20037;-68
2023/01/22 09:46:46;;;;;;;31.23;12.85;;;;;;;;;;4990405;28;20044;-68
2023/01/22 09:49:16;;;;;;;;;;;;;;;;;;5008237;28;20030;-68
2023/01/22 09:51:51;;;;;;;29.63;11.20;;;;;;;;;;4992765;28;19933;-68
2023/01/22 09:54:16;;;;;;;28.25;11.40;;;;;;;;;;4993425;28;20035;-68
2023/01/22 09:56:44;;;;;;;48.58;19.45;;;;;;;;;;4990705;28;20065;-67
2023/01/22 09:59:17;;;;;;;37.78;15.90;;;;;;;;;;4993926;28;20053;-68
2023/01/22 10:01:47;;;;;;;51.63;21.50;;;;;;;;;;4992305;28;20053;-66
2023/01/22 10:04:20;;;;;;;;;;;;;;;;;;4996446;28;20116;-68
2023/01/22 10:06:47;;;;;;;30.65;12.27;;;;;;;;;;4993168;28;20291;-66
2023/01/22 10:09:17;;;;;;;29.48;11.48;;;;;;;;;;4995297;28;20158;-68
2023/01/22 10:11:48;;;;;;;30.80;11.82;;;;;;;;;;4990877;28;20026;-66
2023/01/22 10:14:17;;;;;;;29.95;13.10;;;;;;;;;;4985956;28;20155;-66
2023/01/22 10:16:44;;;;;;;30.33;14.60;;;;;;;;;;4995168;28;20484;-67
2023/01/22 10:19:21;;;;;;;39.80;17.02;;;;;;;;;;4996383;28;20057;-67
2023/01/22 10:21:50;;;;;;;35.80;16.95;;;;;;;;;;4995267;28;20101;-66
2023/01/22 10:24:16;;;;;;;31.15;14.27;;;;;;;;;;5001374;28;20431;-67
2023/01/22 10:26:48;;;;;;;33.95;13.50;;;;;;;;;;4998521;28;20041;-67
2023/01/22 10:29:22;;;;;;;37.83;15.57;;;;;;;;;;4997249;28;20089;-67
2023/01/22 10:31:52;;;;;;;41.67;17.30;;;;;;;;;;4996861;28;20028;-67
2023/01/22 10:34:32;;;;;;;38.28;15.35;;;;;;;;;;4996272;28;20395;-67
2023/01/22 10:37:17;;;;;;;33.28;14.15;;;;;;;;;;4997781;28;20558;-67
2023/01/22 10:39:46;;;;;;;38.63;15.60;;;;;;;;;;4990862;28;20038;-67
2023/01/22 10:42:17;;;;;;;37.50;15.23;;;;;;;;;;4991001;28;20112;-66
2023/01/22 10:44:42;;;;;;;40.97;15.10;;;;;;;;;;4988733;28;20113;-66
2023/01/22 10:47:19;;;;;;;40.60;16.05;;;;;;;;;;4988540;28;20098;-67
2023/01/22 10:49:45;;;;;;;42.25;16.13;;;;;;;;;;4991865;28;20377;-66
2023/01/22 10:52:26;;;;;;;41.25;15.65;;;;;;;;;;4992110;28;20058;-66
2023/01/22 10:54:57;;;;;;;34.00;13.85;;;;;;;;;;4990503;28;20034;-66
2023/01/22 10:57:33;;;;;;;39.78;16.33;;;;;;;;;;4991999;28;20026;-67
2023/01/22 11:00:17;;;;;;;37.80;14.70;;;;;;;;;;4993255;28;20026;-66
2023/01/22 11:02:46;;;;;;;36.60;14.10;;;;;;;;;;4992819;28;20038;-67
2023/01/22 11:05:16;;;;;;;;;;;;;;;;;;4995941;28;20487;-67
2023/01/22 11:07:42;;;;;;;33.60;13.70;;;;;;;;;;4993969;28;19947;-67
2023/01/22 11:10:26;;;;;;;38.83;15.77;;;;;;;;;;4993732;28;20046;-66
2023/01/22 11:12:57;;;;;;;36.40;15.27;;;;;;;;;;4993459;28;20389;-66
2023/01/22 11:15:47;;;;;;;38.55;15.32;;;;;;;;;;4997624;28;20399;-67
2023/01/22 11:18:19;;;;;;;36.80;14.38;;;;;;;;;;4990990;28;20030;-66
2023/01/22 11:20:55;;;;;;;31.90;12.80;;;;;;;;;;4997326;28;20026;-67
2023/01/22 11:23:58;;;;;;;32.60;13.30;;;;;;;;;;4999600;28;20040;-67
2023/01/22 11:27:18;;;;;;;34.42;13.95;;;;;;;;;;4994335;28;20112;-67
2023/01/22 11:30:02;;;;;;;33.30;13.80;;;;;;;;;;4993568;28;20022;-66
2023/01/22 11:32:45;;;;;;;35.13;14.00;;;;;;;;;;4995723;28;20069;-67
2023/01/22 11:35:32;;;;;;;40.90;15.43;;;;;;;;;;5000303;28;20030;-67
2023/01/22 11:38:01;;;;;;;34.97;13.73;;;;;;;;;;4987300;28;20034;-66
2023/01/22 11:40:32;;;;;;;38.35;13.38;;;;;;;;;;4990213;28;20026;-66
2023/01/22 11:43:17;;;;;;;32.50;14.32;;;;;;;;;;4990338;28;20027;-67
2023/01/22 11:46:01;;;;;;;35.75;14.10;;;;;;;;;;4989828;28;20053;-67
2023/01/22 11:48:48;;;;;;;35.35;14.35;;;;;;;;;;4991510;28;20030;-67
2023/01/22 11:51:24;;;;;;;29.80;13.27;;;;;;;;;;4991015;28;20045;-68
2023/01/22 11:54:11;;;;;;;34.28;14.25;;;;;;;;;;4990067;28;20061;-66
2023/01/22 11:56:51;;;;;;;32.20;13.60;;;;;;;;;;4989607;28;20411;-66
2023/01/22 11:59:47;;;;;;;35.85;16.33;;;;;;;;;;4992374;28;20022;-67
2023/01/22 12:02:43;;;;;;;39.30;20.30;;;;;;;;;;4991707;28;20041;-67
2023/01/22 12:05:52;;;;;;;43.72;20.45;;;;;;;;;;4987628;28;20022;-67
2023/01/22 12:08:24;;;;;;;37.70;18.48;;;;;;;;;;4988281;28;20498;-67
2023/01/22 12:10:55;;;;;;;35.58;15.50;;;;;;;;;;4991291;28;20029;-67
2023/01/22 12:13:37;;;;;;;45.22;18.75;;;;;;;;;;4983692;28;20038;-67
2023/01/22 12:16:02;;;;;;;51.30;20.88;;;;;;;;;;4996737;28;20392;-67
2023/01/22 12:18:36;;;;;;;51.55;21.02;;;;;;;;;;4996598;28;20032;-67
2023/01/22 12:21:07;;;;;;;38.28;16.42;;;;;;;;;;4993676;28;20046;-67
2023/01/22 12:23:35;;;;;;;33.63;14.40;;;;;;;;;;4995257;28;20038;-67
2023/01/22 12:26:08;;;;;;;31.55;13.70;;;;;;;;;;4999190;28;20030;-66
2023/01/22 12:28:40;;;;;;;29.73;13.50;;;;;;;;;;4997847;28;20036;-66
2023/01/22 12:31:28;;;;;;;31.10;14.27;;;;;;;;;;4993778;28;20093;-66
2023/01/22 12:33:53;;;;;;;35.58;14.65;;;;;;;;;;4987898;28;20380;-65
2023/01/22 12:36:22;;;;;;;29.27;12.45;;;;;;;;;;4991966;28;20029;-66
2023/01/22 12:39:02;;;;;;;29.08;13.00;;;;;;;;;;4989130;28;20492;-65
2023/01/22 12:41:51;;;;;;;30.50;13.15;;;;;;;;;;4988424;28;20031;-66
2023/01/22 12:44:44;;;;;;;31.30;13.00;;;;;;;;;;4989727;28;20034;-67
2023/01/22 12:47:15;;;;;;;34.40;15.20;;;;;;;;;;4987815;28;20027;-65
2023/01/22 12:49:49;;;;;;;32.38;12.95;;;;;;;;;;4991431;28;20079;-66
2023/01/22 12:52:38;;;;;;;28.35;12.52;;;;;;;;;;4990553;28;20538;-66
2023/01/22 12:55:21;;;;;;;46.65;20.27;;;;;;;;;;4989457;28;20037;-67
2023/01/22 12:57:47;;;;;;;46.90;22.50;;;;;;;;;;4983001;28;20019;-66
2023/01/22 13:00:35;;;;;;;45.40;21.40;;;;;;;;;;4991840;28;20049;-67
2023/01/22 13:03:23;;;;;;;36.45;14.82;;;;;;;;;;4991894;28;20113;-66
2023/01/22 13:05:49;;;;;;;35.58;14.35;;;;;;;;;;4984787;28;20085;-66
2023/01/22 13:08:14;;;;;;;33.30;15.32;;;;;;;;;;4992223;28;20038;-67
2023/01/22 13:11:00;;;;;;;32.80;14.07;;;;;;;;;;4990580;28;20030;-66
2023/01/22 13:13:26;;;;;;;34.88;13.85;;;;;;;;;;4990635;28;20109;-67
2023/01/22 13:15:54;;;;;;;33.30;14.50;;;;;;;;;;4993848;28;20126;-67
2023/01/22 13:18:24;;;;;;;29.67;13.33;;;;;;;;;;4992934;28;20054;-66
2023/01/22 13:20:55;;;;;;;;;;;;;;;;;;4997698;28;20101;-66
2023/01/22 13:23:21;;;;;;;36.78;13.13;;;;;;;;;;4999278;28;19910;-66
2023/01/22 13:25:55;;;;;;;33.55;13.23;;;;;;;;;;4991020;28;20029;-66
2023/01/22 13:28:21;;;;;;;29.60;12.60;;;;;;;;;;4991061;28;20027;-66
2023/01/22 13:31:04;;;;;;;34.75;12.63;;;;;;;;;;5001589;28;20029;-66
2023/01/22 13:33:30;;;;;;;32.95;12.88;;;;;;;;;;5001510;28;20057;-66
2023/01/22 13:35:56;;;;;;;32.22;12.73;;;;;;;;;;4991068;28;20050;-66
2023/01/22 13:38:29;;;;;;;28.52;12.10;;;;;;;;;;4989854;28;20055;-66
2023/01/22 13:40:59;;;;;;;29.88;13.35;;;;;;;;;;4992036;28;20041;-66
2023/01/22 13:43:26;;;;;;;32.58;12.40;;;;;;;;;;4992215;28;20400;-66
2023/01/22 13:45:54;;;;;;;24.80;11.55;;;;;;;;;;4992295;28;20487;-66
2023/01/22 13:48:22;;;;;;;38.65;15.02;;;;;;;;;;4985646;28;20541;-65
2023/01/22 13:50:52;;;;;;;33.13;13.20;;;;;;;;;;4985401;28;20023;-65
2023/01/22 13:53:30;;;;;;;31.77;14.00;;;;;;;;;;4993851;28;20141;-65
2023/01/22 13:55:55;;;;;;;36.58;14.45;;;;;;;;;;4992043;28;20026;-65
2023/01/22 13:58:43;;;;;;;35.63;14.63;;;;;;;;;;4996921;28;20029;-65
2023/01/22 14:01:10;;;;;;;35.00;15.20;;;;;;;;;;4995433;28;20049;-65
2023/01/22 14:03:37;;;;;;;36.20;15.50;;;;;;;;;;4994389;28;20034;-65
2023/01/22 14:06:10;;;;;;;36.83;15.10;;;;;;;;;;4996323;28;20425;-65
2023/01/22 14:08:52;;;;;;;37.50;14.65;;;;;;;;;;4997032;28;20026;-64
2023/01/22 14:11:18;;;;;;;37.67;14.32;;;;;;;;;;4996550;28;20045;-64
2023/01/22 14:13:46;;;;;;;37.85;16.95;;;;;;;;;;4994915;28;20030;-64
2023/01/22 14:16:12;;;;;;;39.28;16.02;;;;;;;;;;5000017;28;20026;-64
2023/01/22 14:18:38;;;;;;;39.03;15.05;;;;;;;;;;4999305;28;20049;-66
2023/01/22 14:21:05;;;;;;;34.38;14.27;;;;;;;;;;4991924;28;20138;-66
2023/01/22 14:23:32;;;;;;;34.13;14.90;;;;;;;;;;4996807;28;20058;-65
2023/01/22 14:26:01;;;;;;;37.35;16.15;;;;;;;;;;5001007;28;20458;-66
2023/01/22 14:28:28;;;;;;;33.67;15.47;;;;;;;;;;5000212;28;20470;-66
2023/01/22 14:30:53;;;;;;;35.33;16.00;;;;;;;;;;4993631;28;20289;-64
2023/01/22 14:33:27;;;;;;;37.70;15.85;;;;;;;;;;4997286;28;20034;-64
2023/01/22 14:35:53;;;;;;;35.55;15.05;;;;;;;;;;4983483;28;20463;-64